createdAt,value
2018-12-04T00:00:02.035Z,-0.53
2018-12-04T00:02:30.721Z,-0.47
2018-12-04T00:04:59.353Z,-0.50
2018-12-04T00:07:28.008Z,-0.44
2018-12-04T00:09:56.693Z,-0.39
2018-12-04T00:12:25.497Z,-0.47
2018-12-04T00:14:54.119Z,-0.46
2018-12-04T00:17:22.763Z,-0.50
2018-12-04T00:19:51.402Z,-0.46
2018-12-04T00:22:20.130Z,-0.46
2018-12-04T00:24:48.823Z,-0.54
2018-12-04T00:27:17.489Z,-0.50
2018-12-04T00:29:46.185Z,-0.41
2018-12-04T00:32:14.968Z,-0.44
2018-12-04T00:34:43.724Z,-0.48
2018-12-04T00:37:12.402Z,-0.50
2018-12-04T00:39:41.069Z,-0.54
2018-12-04T00:42:09.730Z,-0.49
2018-12-04T00:44:38.390Z,-0.54
2018-12-04T00:47:07.037Z,-0.56
2018-12-04T00:49:35.719Z,-0.62
2018-12-04T00:52:04.334Z,-0.64
2018-12-04T00:54:32.975Z,-0.58
2018-12-04T00:57:01.621Z,-0.61
2018-12-04T00:59:30.275Z,-0.54
2018-12-04T01:01:58.943Z,-0.54
2018-12-04T01:04:27.596Z,-0.46
2018-12-04T01:06:56.239Z,-0.47
2018-12-04T01:09:24.851Z,-0.64
2018-12-04T01:11:53.737Z,-0.71
2018-12-04T01:14:22.366Z,-0.61
2018-12-04T01:16:51.100Z,-0.64
2018-12-04T01:19:19.837Z,-0.72
2018-12-04T01:21:48.611Z,-0.71
2018-12-04T01:24:17.261Z,-0.70
2018-12-04T01:26:45.956Z,-0.71
2018-12-04T01:29:14.586Z,-0.66
2018-12-04T01:31:43.252Z,-0.66
2018-12-04T01:34:11.995Z,-0.57
2018-12-04T01:36:40.748Z,-0.69
2018-12-04T01:39:09.608Z,-0.63
2018-12-04T01:41:38.496Z,-0.62
2018-12-04T01:44:07.160Z,-0.69
2018-12-04T01:46:35.806Z,-0.72
2018-12-04T01:49:04.464Z,-0.76
2018-12-04T01:51:33.103Z,-0.71
2018-12-04T01:54:01.783Z,-0.70
2018-12-04T01:56:30.448Z,-0.73
2018-12-04T01:58:59.106Z,-0.76
2018-12-04T02:01:27.762Z,-0.77
2018-12-04T02:03:56.407Z,-0.67
2018-12-04T02:06:25.087Z,-0.71
2018-12-04T02:08:53.743Z,-0.75
2018-12-04T02:11:22.419Z,-0.72
2018-12-04T02:13:51.056Z,-0.74
2018-12-04T02:16:19.690Z,-0.71
2018-12-04T02:18:48.360Z,-0.53
2018-12-04T02:21:17.039Z,-0.60
2018-12-04T02:23:45.703Z,-0.48
2018-12-04T02:26:14.332Z,-0.60
2018-12-04T02:28:43.038Z,-0.57
2018-12-04T02:31:11.816Z,-0.61
2018-12-04T02:33:40.513Z,-0.64
2018-12-04T02:36:09.165Z,-0.51
2018-12-04T02:38:37.799Z,-0.73
2018-12-04T02:41:06.525Z,-0.67
2018-12-04T02:43:35.307Z,-0.68
2018-12-04T02:46:03.999Z,-0.68
2018-12-04T02:48:32.663Z,-0.72
2018-12-04T02:51:01.371Z,-0.69
2018-12-04T02:53:29.990Z,-0.64
2018-12-04T02:55:58.653Z,-0.66
2018-12-04T02:58:27.290Z,-0.70
2018-12-04T03:00:56.063Z,-0.66
2018-12-04T03:03:24.710Z,-0.64
2018-12-04T03:05:53.437Z,-0.67
2018-12-04T03:08:22.126Z,-0.79
2018-12-04T03:10:50.835Z,-0.86
2018-12-04T03:13:19.483Z,-0.88
2018-12-04T03:15:48.182Z,-0.85
2018-12-04T03:18:16.854Z,-0.85
2018-12-04T03:20:45.534Z,-0.82
2018-12-04T03:23:14.267Z,-0.93
2018-12-04T03:25:43.101Z,-0.83
2018-12-04T03:28:11.767Z,-0.83
2018-12-04T03:30:40.486Z,-0.80
2018-12-04T03:33:09.819Z,-0.80
2018-12-04T03:35:38.521Z,-0.90
2018-12-04T03:38:07.250Z,-0.88
2018-12-04T03:40:36.233Z,-0.88
2018-12-04T03:43:05.105Z,-0.82
2018-12-04T03:45:33.844Z,-0.82
2018-12-04T03:48:02.533Z,-0.88
2018-12-04T03:50:31.257Z,-0.87
2018-12-04T03:54:29.331Z,-0.86
2018-12-04T03:56:58.039Z,-0.84
2018-12-04T03:59:27.391Z,-0.85
2018-12-04T04:01:56.069Z,-0.74
2018-12-04T04:04:24.824Z,-0.69
2018-12-04T04:06:53.584Z,-0.72
2018-12-04T04:09:22.299Z,-0.68
2018-12-04T04:11:51.013Z,-0.76
2018-12-04T04:14:19.708Z,-0.64
2018-12-04T04:16:48.453Z,-0.66
2018-12-04T04:19:17.227Z,-0.60
2018-12-04T04:21:45.920Z,-0.68
2018-12-04T04:24:14.724Z,-0.65
2018-12-04T04:26:43.440Z,-0.68
2018-12-04T04:29:12.115Z,-0.75
2018-12-04T04:31:40.914Z,-0.78
2018-12-04T04:34:09.635Z,-0.75
2018-12-04T04:36:38.442Z,-0.70
2018-12-04T04:39:08.230Z,-0.68
2018-12-04T04:41:36.891Z,-0.66
2018-12-04T04:44:05.598Z,-0.62
2018-12-04T04:46:34.377Z,-0.81
2018-12-04T04:49:03.119Z,-0.74
2018-12-04T04:51:32.252Z,-0.75
2018-12-04T04:54:01.038Z,-0.61
2018-12-04T04:56:29.721Z,-0.61
2018-12-04T04:58:58.432Z,-0.66
2018-12-04T05:01:27.152Z,-0.70
2018-12-04T05:03:55.851Z,-0.69
2018-12-04T05:06:24.685Z,-0.62
2018-12-04T05:08:53.457Z,-0.69
2018-12-04T05:11:22.232Z,-0.60
2018-12-04T05:13:50.938Z,-0.58
2018-12-04T05:16:19.617Z,-0.51
2018-12-04T05:18:48.347Z,-0.48
2018-12-04T05:21:17.094Z,-0.56
2018-12-04T05:23:45.895Z,-0.53
2018-12-04T05:26:14.578Z,-0.44
2018-12-04T05:28:43.351Z,-0.43
2018-12-04T05:31:12.145Z,-0.47
2018-12-04T05:33:40.835Z,-0.51
2018-12-04T05:36:09.442Z,-0.40
2018-12-04T05:38:38.353Z,-0.40
2018-12-04T05:41:06.998Z,-0.30
2018-12-04T05:43:35.712Z,-0.29
2018-12-04T05:46:04.402Z,-0.43
2018-12-04T05:48:33.067Z,-0.32
2018-12-04T05:51:01.737Z,-0.33
2018-12-04T05:53:34.569Z,-0.40
2018-12-04T05:56:03.498Z,-0.32
2018-12-04T05:58:32.140Z,-0.31
2018-12-04T06:01:01.293Z,-0.17
2018-12-04T06:03:29.941Z,-0.23
2018-12-04T06:05:58.672Z,-0.24
2018-12-04T06:08:27.280Z,-0.33
2018-12-04T06:10:55.979Z,-0.34
2018-12-04T06:13:24.636Z,-0.23
2018-12-04T06:15:53.720Z,-0.23
2018-12-04T06:18:22.437Z,-0.30
2018-12-04T06:20:51.110Z,-0.30
2018-12-04T06:23:19.791Z,-0.17
2018-12-04T06:25:48.477Z,-0.26
2018-12-04T06:28:17.147Z,-0.20
2018-12-04T06:30:46.071Z,-0.18
2018-12-04T06:33:14.796Z,-0.22
2018-12-04T06:35:43.442Z,-0.17
2018-12-04T06:38:12.099Z,-0.21
2018-12-04T06:40:40.910Z,-0.30
2018-12-04T06:43:09.673Z,-0.15
2018-12-04T06:45:38.362Z,-0.10
2018-12-04T06:48:07.101Z,-0.08
2018-12-04T06:50:35.787Z,-0.01
2018-12-04T06:53:05.391Z,0.03
2018-12-04T06:55:34.098Z,0.04
2018-12-04T06:58:02.736Z,0.05
2018-12-04T07:00:32.085Z,0.02
2018-12-04T07:03:00.792Z,0.06
2018-12-04T07:05:29.464Z,-0.02
2018-12-04T07:07:58.134Z,0.05
2018-12-04T07:10:27.273Z,0.13
2018-12-04T07:12:56.004Z,0.19
2018-12-04T07:15:24.703Z,0.15
2018-12-04T07:17:53.376Z,0.20
2018-12-04T07:20:22.027Z,0.20
2018-12-04T07:22:50.708Z,0.27
2018-12-04T07:25:19.404Z,0.41
2018-12-04T07:27:48.076Z,0.51
2018-12-04T07:30:17.048Z,0.46
2018-12-04T07:32:45.722Z,0.48
2018-12-04T07:35:14.415Z,0.48
2018-12-04T07:37:43.115Z,0.22
2018-12-04T07:40:12.104Z,0.51
2018-12-04T07:42:40.807Z,0.61
2018-12-04T07:45:09.509Z,0.68
2018-12-04T07:47:38.189Z,0.68
2018-12-04T07:50:06.996Z,0.73
2018-12-04T07:52:35.610Z,0.76
2018-12-04T07:55:04.725Z,0.84
2018-12-04T07:57:33.524Z,0.87
2018-12-04T08:00:02.286Z,0.97
2018-12-04T08:02:31.141Z,1.14
2018-12-04T08:04:59.807Z,1.19
2018-12-04T08:07:28.532Z,1.16
2018-12-04T08:09:57.161Z,1.21
2018-12-04T08:12:25.869Z,1.22
2018-12-04T08:14:54.641Z,1.24
2018-12-04T08:17:23.316Z,1.45
2018-12-04T08:19:52.134Z,1.39
2018-12-04T08:22:20.865Z,1.46
2018-12-04T08:24:49.495Z,1.59
2018-12-04T08:27:26.318Z,1.61
2018-12-04T08:29:55.019Z,1.61
2018-12-04T08:32:23.686Z,1.70
2018-12-04T08:34:52.333Z,1.77
2018-12-04T08:37:20.980Z,1.64
2018-12-04T08:39:49.612Z,1.79
2018-12-04T08:42:18.922Z,1.88
2018-12-04T08:44:47.587Z,1.94
2018-12-04T08:47:16.244Z,2.03
2018-12-04T08:49:44.978Z,1.96
2018-12-04T08:52:13.706Z,2.05
2018-12-04T08:54:42.366Z,2.16
2018-12-04T08:57:11.149Z,2.16
2018-12-04T08:59:39.825Z,2.22
2018-12-04T09:02:08.553Z,2.22
2018-12-04T09:04:37.444Z,2.29
2018-12-04T09:07:06.586Z,2.27
2018-12-04T09:09:35.437Z,2.34
2018-12-04T09:12:04.277Z,2.27
2018-12-04T09:14:38.079Z,2.26
2018-12-04T09:17:04.203Z,2.36
2018-12-04T09:19:32.865Z,2.28
2018-12-04T09:22:01.490Z,2.35
2018-12-04T09:24:43.787Z,2.34
2018-12-04T09:27:12.430Z,2.30
2018-12-04T09:29:41.148Z,2.43
2018-12-04T09:32:09.968Z,2.37
2018-12-04T09:34:38.676Z,2.35
2018-12-04T09:37:07.320Z,2.27
2018-12-04T09:39:36.061Z,2.33
2018-12-04T09:42:04.947Z,2.33
2018-12-04T09:45:04.272Z,2.34
2018-12-04T09:52:22.179Z,2.29
2018-12-04T09:54:50.849Z,2.06
2018-12-04T09:57:20.543Z,2.30
2018-12-04T09:59:49.197Z,2.20
2018-12-04T10:02:17.879Z,2.40
2018-12-04T10:04:46.525Z,2.50
2018-12-04T10:07:15.143Z,2.52
2018-12-04T10:09:43.835Z,2.55
2018-12-04T10:12:12.511Z,2.44
2018-12-04T10:14:41.151Z,2.61
2018-12-04T10:17:09.891Z,2.68
2018-12-04T10:19:41.621Z,2.66
2018-12-04T10:22:10.243Z,2.80
2018-12-04T10:24:38.967Z,2.80
2018-12-04T10:27:07.757Z,2.77
2018-12-04T10:29:36.925Z,2.89
2018-12-04T10:32:05.723Z,3.08
2018-12-04T10:34:34.458Z,3.11
2018-12-04T10:37:03.378Z,3.17
2018-12-04T10:39:32.039Z,3.18
2018-12-04T10:42:00.899Z,3.18
2018-12-04T10:44:29.519Z,3.40
2018-12-04T10:46:58.161Z,3.32
2018-12-04T10:49:26.895Z,3.44
2018-12-04T10:51:55.563Z,3.57
2018-12-04T10:54:24.408Z,3.67
2018-12-04T10:56:53.059Z,3.77
2018-12-04T10:59:21.719Z,3.69
2018-12-04T11:01:55.697Z,3.75
2018-12-04T11:04:24.366Z,3.73
2018-12-04T11:06:53.293Z,3.75
2018-12-04T11:09:21.967Z,3.68
2018-12-04T11:11:50.780Z,3.74
2018-12-04T11:14:19.526Z,3.87
2018-12-04T11:16:48.213Z,3.92
2018-12-04T11:19:17.093Z,3.68
2018-12-04T11:21:45.838Z,3.77
2018-12-04T11:24:14.557Z,3.73
2018-12-04T11:27:13.885Z,3.80
2018-12-04T11:29:42.587Z,3.88
2018-12-04T11:32:11.242Z,3.87
2018-12-04T11:34:39.974Z,3.99
2018-12-04T11:37:08.633Z,3.96
2018-12-04T11:39:37.283Z,3.94
2018-12-04T11:42:06.011Z,3.88
2018-12-04T11:44:35.383Z,3.83
2018-12-04T11:47:04.065Z,3.89
2018-12-04T11:49:32.765Z,3.88
2018-12-04T11:52:01.457Z,3.88
2018-12-04T11:54:30.187Z,3.72
2018-12-04T11:56:58.927Z,3.65
2018-12-04T11:59:28.273Z,3.76
2018-12-04T12:02:03.102Z,3.81
2018-12-04T12:04:31.753Z,3.99
2018-12-04T12:07:00.480Z,3.99
2018-12-04T12:09:29.133Z,3.78
2018-12-04T12:11:57.867Z,3.86
2018-12-04T12:14:26.608Z,3.86
2018-12-04T12:16:55.345Z,4.02
2018-12-04T12:19:23.985Z,3.81
2018-12-04T12:21:54.473Z,3.89
2018-12-04T12:24:23.146Z,3.87
2018-12-04T12:26:51.973Z,4.00
2018-12-04T12:29:21.408Z,4.03
2018-12-04T12:31:50.331Z,4.25
2018-12-04T12:34:34.760Z,4.19
2018-12-04T12:37:07.105Z,4.01
2018-12-04T12:39:35.835Z,4.09
2018-12-04T12:42:16.488Z,4.10
2018-12-04T12:44:45.203Z,4.07
2018-12-04T12:47:14.350Z,4.15
2018-12-04T12:49:43.056Z,4.08
2018-12-04T12:52:11.712Z,4.07
2018-12-04T12:54:40.414Z,3.91
2018-12-04T12:57:09.166Z,3.86
2018-12-04T12:59:37.807Z,3.88
2018-12-04T13:02:06.975Z,3.82
2018-12-04T13:04:35.631Z,3.74
2018-12-04T13:07:04.701Z,3.73
2018-12-04T13:09:33.409Z,3.70
2018-12-04T13:12:02.742Z,3.68
2018-12-04T13:14:32.268Z,3.62
2018-12-04T13:17:00.969Z,3.53
2018-12-04T13:19:30.384Z,3.49
2018-12-04T13:21:59.059Z,3.48
2018-12-04T13:24:27.741Z,3.60
2018-12-04T13:26:56.369Z,3.60
2018-12-04T13:29:25.309Z,3.50
2018-12-04T13:31:54.002Z,3.47
2018-12-04T13:34:22.679Z,3.52
2018-12-04T13:36:51.525Z,3.53
2018-12-04T13:39:20.222Z,3.48
2018-12-04T13:41:48.886Z,3.51
2018-12-04T13:44:17.568Z,3.54
2018-12-04T13:46:46.217Z,3.55
2018-12-04T13:49:14.892Z,3.47
2018-12-04T13:51:43.519Z,3.64
2018-12-04T13:54:12.154Z,3.69
2018-12-04T13:56:40.846Z,3.69
2018-12-04T13:59:09.597Z,3.68
2018-12-04T14:01:38.334Z,3.72
2018-12-04T14:04:07.099Z,3.54
2018-12-04T14:06:35.775Z,3.64
2018-12-04T14:09:06.663Z,3.55
2018-12-04T14:11:35.328Z,3.60
2018-12-04T14:14:04.026Z,3.48
2018-12-04T14:16:32.731Z,3.56
2018-12-04T14:19:01.398Z,3.67
2018-12-04T14:21:30.098Z,3.73
2018-12-04T14:23:58.970Z,3.72
2018-12-04T14:26:27.669Z,3.66
2018-12-04T14:28:56.354Z,3.66
2018-12-04T14:31:25.139Z,3.59
2018-12-04T14:33:53.909Z,3.57
2018-12-04T14:36:22.770Z,3.74
2018-12-04T14:38:51.472Z,3.66
2018-12-04T14:41:20.279Z,3.58
2018-12-04T14:43:49.098Z,3.52
2018-12-04T14:46:17.856Z,3.59
2018-12-04T14:48:46.585Z,3.38
2018-12-04T14:51:15.284Z,3.44
2018-12-04T14:53:43.979Z,3.47
2018-12-04T14:56:12.672Z,3.36
2018-12-04T14:58:41.311Z,3.37
2018-12-04T15:01:10.026Z,3.30
2018-12-04T15:03:38.778Z,3.23
2018-12-04T15:06:07.422Z,3.19
2018-12-04T15:08:36.146Z,3.23
2018-12-04T15:11:04.848Z,3.10
2018-12-04T15:13:33.509Z,3.16
2018-12-04T15:16:02.209Z,3.05
2018-12-04T15:18:30.903Z,3.13
2018-12-04T15:20:59.738Z,3.05
2018-12-04T15:23:28.360Z,2.95
2018-12-04T15:25:57.125Z,3.02
2018-12-04T15:28:25.824Z,2.96
2018-12-04T15:30:54.624Z,3.00
2018-12-04T15:33:24.096Z,3.04
2018-12-04T15:35:52.892Z,3.05
2018-12-04T15:38:21.576Z,3.09
2018-12-04T15:40:50.252Z,2.94
2018-12-04T15:43:18.970Z,2.94
2018-12-04T15:45:49.572Z,2.91
2018-12-04T15:48:18.200Z,2.89
2018-12-04T15:50:47.058Z,3.01
2018-12-04T15:53:15.765Z,2.93
2018-12-04T15:55:44.495Z,3.10
2018-12-04T15:58:13.199Z,3.12
2018-12-04T16:00:41.893Z,3.01
2018-12-04T16:03:10.681Z,2.99
2018-12-04T16:05:39.355Z,2.92
2018-12-04T16:08:08.058Z,2.99
2018-12-04T16:10:36.821Z,3.10
2018-12-04T16:13:05.622Z,3.11
2018-12-04T16:15:34.289Z,3.16
2018-12-04T16:18:03.015Z,3.17
2018-12-04T16:20:31.685Z,3.01
2018-12-04T16:23:00.273Z,3.15
2018-12-04T16:25:28.968Z,3.14
2018-12-04T16:27:57.631Z,3.09
2018-12-04T16:30:26.240Z,3.15
2018-12-04T16:32:54.890Z,3.32
2018-12-04T16:35:23.518Z,3.31
2018-12-04T16:37:52.337Z,3.17
2018-12-04T16:40:20.940Z,3.25
2018-12-04T16:42:49.591Z,3.18
2018-12-04T16:45:18.229Z,3.18
2018-12-04T16:47:47.189Z,3.12
2018-12-04T16:50:15.939Z,3.01
2018-12-04T16:52:44.560Z,3.10
2018-12-04T16:55:13.220Z,3.08
2018-12-04T16:57:41.860Z,3.16
2018-12-04T17:00:11.277Z,3.21
2018-12-04T17:02:39.995Z,3.17
2018-12-04T17:05:09.889Z,3.22
2018-12-04T17:07:38.956Z,3.19
2018-12-04T17:10:09.188Z,3.21
2018-12-04T17:13:09.981Z,3.15
2018-12-04T17:15:39.138Z,3.02
2018-12-04T17:18:08.424Z,3.15
2018-12-04T17:20:37.803Z,3.18
2018-12-04T17:23:06.501Z,3.27
2018-12-04T17:25:35.169Z,3.34
2018-12-04T17:28:03.838Z,3.41
2018-12-04T17:30:32.488Z,3.23
2018-12-04T17:33:01.455Z,3.28
2018-12-04T17:35:30.714Z,3.15
2018-12-04T17:37:59.404Z,3.10
2018-12-04T17:40:29.022Z,2.98
2018-12-04T17:42:57.776Z,3.05
2018-12-04T17:45:26.585Z,3.20
2018-12-04T17:47:55.297Z,3.19
2018-12-04T17:53:01.482Z,3.25
2018-12-04T17:55:30.187Z,3.27
2018-12-04T17:57:59.042Z,3.16
2018-12-04T18:00:27.738Z,3.18
2018-12-04T18:02:56.492Z,3.20
2018-12-04T18:05:25.276Z,3.31
2018-12-04T18:07:53.996Z,3.22
2018-12-04T18:10:22.752Z,3.22
2018-12-04T18:12:51.418Z,3.20
2018-12-04T18:15:20.166Z,3.04
2018-12-04T18:17:48.929Z,3.22
2018-12-04T18:20:17.525Z,3.17
2018-12-04T18:22:46.233Z,3.32
2018-12-04T18:25:14.874Z,3.22
2018-12-04T18:27:43.612Z,3.12
2018-12-04T18:30:12.344Z,3.27
2018-12-04T18:32:40.996Z,3.37
2018-12-04T18:35:09.672Z,3.43
2018-12-04T18:37:38.363Z,3.47
2018-12-04T18:40:07.517Z,3.34
2018-12-04T18:42:36.639Z,3.39
2018-12-04T18:45:06.728Z,3.54
2018-12-04T18:47:35.389Z,3.51
2018-12-04T18:50:05.565Z,3.47
2018-12-04T18:52:35.486Z,3.39
2018-12-04T18:55:04.573Z,3.42
2018-12-04T18:57:33.362Z,3.40
2018-12-04T19:00:02.764Z,3.47
2018-12-04T19:02:31.367Z,3.53
2018-12-04T19:05:00.117Z,3.59
2018-12-04T19:07:28.831Z,3.64
2018-12-04T19:09:57.517Z,3.63
2018-12-04T19:12:26.169Z,3.57
2018-12-04T19:14:54.843Z,3.49
2018-12-04T19:17:23.543Z,3.39
2018-12-04T19:19:55.322Z,3.46
2018-12-04T19:22:24.160Z,3.51
2018-12-04T19:24:54.548Z,3.46
2018-12-04T19:27:23.323Z,3.47
2018-12-04T19:29:52.122Z,3.52
2018-12-04T19:32:20.819Z,3.48
2018-12-04T19:34:49.536Z,3.56
2018-12-04T19:37:18.265Z,3.47
2018-12-04T19:39:46.971Z,3.34
2018-12-04T19:42:16.319Z,3.21
2018-12-04T19:44:45.153Z,3.32
2018-12-04T19:47:13.859Z,3.26
2018-12-04T19:49:42.639Z,3.29
2018-12-04T19:52:12.738Z,3.21
2018-12-04T19:54:41.458Z,3.18
2018-12-04T19:57:10.140Z,3.23
2018-12-04T19:59:38.946Z,3.31
2018-12-04T20:02:07.755Z,3.25
2018-12-04T20:04:36.734Z,3.30
2018-12-04T20:07:05.455Z,3.34
2018-12-04T20:09:34.156Z,3.29
2018-12-04T20:12:03.115Z,3.20
2018-12-04T20:14:31.786Z,3.19
2018-12-04T20:17:00.430Z,3.38
2018-12-04T20:19:34.611Z,3.37
2018-12-04T20:22:03.255Z,3.37
2018-12-04T20:24:31.949Z,3.38
2018-12-04T20:27:00.566Z,3.32
2018-12-04T20:29:29.289Z,3.19
2018-12-04T20:31:58.141Z,3.24
2018-12-04T20:34:27.468Z,3.33
2018-12-04T20:36:56.135Z,3.31
2018-12-04T20:39:24.807Z,3.12
2018-12-04T20:42:00.209Z,3.07
2018-12-04T20:44:28.912Z,3.10
2018-12-04T20:46:57.507Z,3.16
2018-12-04T20:49:27.886Z,3.11
2018-12-04T20:51:56.579Z,2.97
2018-12-04T20:54:25.298Z,2.91
2018-12-04T20:56:54.590Z,2.85
2018-12-04T20:59:23.286Z,2.98
2018-12-04T21:01:51.973Z,3.01
2018-12-04T21:04:23.375Z,3.08
2018-12-04T21:06:52.068Z,3.11
2018-12-04T21:09:20.796Z,2.97
2018-12-04T21:11:49.803Z,3.05
2018-12-04T21:14:18.459Z,3.13
2018-12-04T21:16:47.750Z,3.21
2018-12-04T21:19:17.462Z,3.10
2018-12-04T21:21:46.135Z,3.09
2018-12-04T21:24:14.812Z,3.08
2018-12-04T21:26:43.515Z,3.03
2018-12-04T21:29:17.334Z,3.12
2018-12-04T21:31:51.178Z,3.15
2018-12-04T21:34:25.730Z,2.97
2018-12-04T21:36:59.761Z,2.97
2018-12-04T21:39:33.688Z,3.02
2018-12-04T21:42:06.506Z,3.13
2018-12-04T21:44:40.419Z,3.14
2018-12-04T21:47:14.295Z,2.97
2018-12-04T21:49:42.936Z,3.02
2018-12-04T21:52:11.617Z,3.00
2018-12-04T21:54:40.451Z,3.00
2018-12-04T21:57:09.122Z,3.04
2018-12-04T21:59:38.160Z,3.02
2018-12-04T22:02:07.795Z,3.02
2018-12-04T22:04:36.530Z,3.02
2018-12-04T22:07:05.264Z,2.94
2018-12-04T22:10:30.745Z,3.09
2018-12-04T22:12:59.565Z,3.14
2018-12-04T22:15:28.196Z,3.10
2018-12-04T22:17:56.880Z,3.09
2018-12-04T22:20:25.535Z,3.04
2018-12-04T22:22:54.203Z,3.10
2018-12-04T22:25:22.887Z,3.17
2018-12-04T22:27:52.646Z,3.14
2018-12-04T22:30:21.286Z,3.08
2018-12-04T22:32:50.713Z,3.22
2018-12-04T22:35:19.443Z,3.20
2018-12-04T22:37:48.146Z,3.28
2018-12-04T22:40:16.802Z,3.33
2018-12-04T22:42:45.473Z,3.31
2018-12-04T22:45:20.570Z,3.31
2018-12-04T22:47:49.203Z,3.39
2018-12-04T22:50:18.546Z,3.34
2018-12-04T22:52:47.265Z,3.35
2018-12-04T22:55:15.960Z,3.29
2018-12-04T22:57:44.764Z,3.42
2018-12-04T23:00:32.140Z,3.47
2018-12-04T23:03:00.983Z,3.45
2018-12-04T23:05:29.679Z,3.34
2018-12-04T23:07:58.493Z,3.34
2018-12-04T23:10:28.885Z,3.39
2018-12-04T23:12:57.694Z,3.51
2018-12-04T23:15:26.425Z,3.50
2018-12-04T23:17:55.129Z,3.40
2018-12-04T23:20:23.813Z,3.40
2018-12-04T23:22:53.630Z,3.43
2018-12-04T23:25:22.258Z,3.41
2018-12-04T23:27:50.939Z,3.47
2018-12-04T23:30:19.607Z,3.33
2018-12-04T23:32:48.191Z,3.24
2018-12-04T23:35:20.021Z,3.30
2018-12-04T23:37:48.722Z,3.29
2018-12-04T23:40:17.375Z,3.22
2018-12-04T23:42:46.017Z,3.25
2018-12-04T23:45:14.659Z,3.19
2018-12-04T23:47:43.347Z,3.12
2018-12-04T23:50:12.086Z,3.23
2018-12-04T23:52:40.976Z,3.15
2018-12-04T23:55:09.643Z,3.18
2018-12-04T23:57:38.309Z,3.16
